NCAR-RAP Real-Time Weather Data

Output produced by METARs form (12 May 2021  12:10 UTC)
found at http://weather.rap.ucar.edu/surface/
 
KSTS 121153Z AUTO 00000KT 1SM BR VV002 08/08 A2995 RMK AO2 SLP135 T00830083 10100 20078 53005
KSTS 121146Z AUTO 10003KT 1 1/4SM BR OVC002 08/08 A2995 RMK AO2 T00830083
KSTS 121138Z AUTO 13003KT 2SM BR OVC002 08/08 A2995 RMK AO2 T00830083
KSTS 121129Z AUTO 00000KT 1 1/2SM BR OVC002 08/08 A2995 RMK AO2 T00830083
KSTS 121115Z AUTO 00000KT 3/4SM BR VV002 08/08 A2994 RMK AO2 T00830078
KSTS 121053Z AUTO 16003KT 1 1/2SM BR OVC002 08/08 A2994 RMK AO2 SLP133 T00830083
KSTS 121037Z AUTO 19003KT 2 1/2SM BR OVC002 08/08 A2994 RMK AO2 VIS 1 3/4V4 T00830083
KSTS 121019Z AUTO 14004KT 1 1/4SM BR OVC002 08/08 A2994 RMK AO2 T00830083
KSTS 121004Z AUTO 17004KT 3/4SM BR VV002 08/08 A2993 RMK AO2 T00830078
KSTS 120953Z AUTO 17005KT 1SM BR VV002 08/08 A2993 RMK AO2 SLP130 T00830078
KSTS 120945Z AUTO 16004KT 1 3/4SM BR OVC003 08/08 A2993 RMK AO2 T00830078
KSTS 120935Z AUTO 16006KT 7SM BKN003 08/08 A2993 RMK AO2 T00830078
KSTS 120920Z AUTO 17004KT 9SM SCT003 08/08 A2993 RMK AO2 T00830078
KSTS 120853Z AUTO 14003KT 9SM CLR 08/07 A2993 RMK AO2 SLP130 T00830072 53003
KSTS 120753Z AUTO 16004KT 9SM CLR 09/07 A2993 RMK AO2 SLP127 T00890072 402940072
KSTS 120653Z AUTO 16003KT 9SM CLR 09/08 A2992 RMK AO2 SLP126 T00940078
KSTS 120553Z AUTO 15003KT 8SM CLR 10/08 A2992 RMK AO2 SLP127 T01000078 10256 20100 51012
KSTS 120453Z AUTO 16004KT 8SM CLR 11/08 A2992 RMK AO2 SLP125 T01060083
KSTS 120353Z AUTO 17006KT 8SM CLR 13/09 A2991 RMK AO2 SLP121 T01330089
KSTS 120253Z 15006KT 7SM CLR 16/09 A2989 RMK AO2 SLP115 T01610089 52005
KSTS 120153Z 16010KT 8SM CLR 20/09 A2988 RMK AO2 SLP112 T02000094
KSTS 120053Z 18010KT 9SM CLR 23/09 A2988 RMK AO2 SLP113 T02280094
KSTS 112353Z 17009KT 10SM CLR 26/09 A2987 RMK AO2 SLP110 T02560094 10294 20239 55002